createdAt,value
2017-10-10T00:00:54.995Z,96.21
2017-10-10T00:02:04.989Z,95.83
2017-10-10T00:03:15.331Z,95.83
2017-10-10T00:04:25.658Z,96.12
2017-10-10T00:05:35.323Z,95.93
2017-10-10T00:06:45.323Z,96.21
2017-10-10T00:07:54.989Z,96.5
2017-10-10T00:09:05.314Z,96.31
2017-10-10T00:10:15.651Z,95.83
2017-10-10T00:11:27.951Z,95.64
2017-10-10T00:12:37.625Z,95.17
2017-10-10T00:13:47.961Z,95.93
2017-10-10T00:14:58.310Z,96.4
2017-10-10T00:16:08.343Z,96.4
2017-10-10T00:17:18.672Z,96.4
2017-10-10T00:18:28.675Z,96.4
2017-10-10T00:19:39.002Z,95.64
2017-10-10T00:20:49.328Z,95.45
2017-10-10T00:21:59.327Z,95.26
2017-10-10T00:23:08.654Z,95.26
2017-10-10T00:24:18.981Z,95.07
2017-10-10T00:25:28.306Z,95.55
2017-10-10T00:26:38.637Z,95.45
2017-10-10T00:27:48.299Z,94.98
2017-10-10T00:29:01.965Z,94.98
2017-10-10T00:30:11.962Z,95.45
2017-10-10T00:31:22.297Z,95.26
2017-10-10T00:32:31.973Z,94.89
2017-10-10T00:33:41.965Z,95.45
2017-10-10T00:34:51.995Z,95.07
2017-10-10T00:36:01.330Z,94.7
2017-10-10T00:37:11.329Z,95.26
2017-10-10T00:38:21.319Z,95.5
2017-10-10T00:39:30.989Z,96.69
2017-10-10T00:40:41.000Z,97.91
2017-10-10T00:41:51.014Z,97.3
2017-10-10T00:43:01.014Z,97.67
2017-10-10T00:44:11.010Z,97.77
2017-10-10T00:45:21.344Z,98.52
2017-10-10T00:46:31.002Z,98.33
2017-10-10T00:47:41.332Z,97.86
2017-10-10T00:48:51.328Z,98.05
2017-10-10T00:50:01.675Z,97.77
2017-10-10T00:51:11.334Z,97.77
2017-10-10T00:52:21.330Z,97.58
2017-10-10T00:53:31.329Z,98.33
2017-10-10T00:54:41.656Z,98.62
2017-10-10T00:55:51.994Z,98.81
2017-10-10T00:57:02.322Z,98.9
2017-10-10T00:58:12.319Z,99.28
2017-10-10T00:59:22.664Z,99.85
2017-10-10T01:00:33.010Z,99.85
2017-10-10T01:01:43.045Z,99.85
2017-10-10T01:02:53.372Z,99.85
2017-10-10T01:04:03.385Z,99
2017-10-10T01:05:13.045Z,97.67
2017-10-10T01:06:23.039Z,98.33
2017-10-10T01:07:33.068Z,97.67
2017-10-10T01:08:43.406Z,98.05
2017-10-10T01:09:53.066Z,98.14
2017-10-10T01:11:03.062Z,98.52
2017-10-10T01:12:13.063Z,98.9
2017-10-10T01:13:23.386Z,98.24
2017-10-10T01:14:33.406Z,99.09
2017-10-10T01:15:43.068Z,98.52
2017-10-10T01:16:53.404Z,98.52
2017-10-10T01:18:03.752Z,98.81
2017-10-10T01:19:14.083Z,98.52
2017-10-10T01:20:24.416Z,98.52
2017-10-10T01:21:34.411Z,98.71
2017-10-10T01:22:44.743Z,98.24
2017-10-10T01:23:54.398Z,98.43
2017-10-10T01:25:04.732Z,98.24
2017-10-10T01:26:15.107Z,98.71
2017-10-10T01:27:25.438Z,98.9
2017-10-10T01:28:35.438Z,98.71
2017-10-10T01:29:45.437Z,98.9
2017-10-10T01:30:55.463Z,99.28
2017-10-10T01:32:05.464Z,99.38
2017-10-10T01:33:15.797Z,99
2017-10-10T01:34:26.134Z,98.43
2017-10-10T01:35:36.136Z,97.96
2017-10-10T01:36:46.127Z,98.33
2017-10-10T01:37:56.132Z,98.71
2017-10-10T01:39:06.133Z,98.81
2017-10-10T01:40:16.142Z,97.58
2017-10-10T01:41:25.797Z,98.24
2017-10-10T01:42:35.124Z,98.24
2017-10-10T01:43:45.124Z,98.71
2017-10-10T01:44:55.457Z,98.9
2017-10-10T01:46:05.799Z,99.38
2017-10-10T01:47:15.794Z,99.66
2017-10-10T01:48:25.790Z,99.99
2017-10-10T01:49:35.785Z,99.85
2017-10-10T01:50:46.113Z,99.99
2017-10-10T01:51:55.777Z,99.99
2017-10-10T01:53:06.124Z,99.99
2017-10-10T01:54:16.453Z,99.99
2017-10-10T01:55:26.445Z,99.99
2017-10-10T01:56:36.772Z,99.99
2017-10-10T01:57:46.773Z,99.99
2017-10-10T01:58:56.772Z,99.99
2017-10-10T02:00:06.768Z,99.99
2017-10-10T02:01:16.762Z,99.99
2017-10-10T02:02:26.762Z,99.99
2017-10-10T02:03:36.420Z,99.99
2017-10-10T02:04:46.408Z,99.99
2017-10-10T02:05:56.733Z,99.99
2017-10-10T02:07:06.083Z,99.99
2017-10-10T02:08:16.560Z,99.99
2017-10-10T02:09:26.229Z,99.99
2017-10-10T02:10:36.588Z,99.99
2017-10-10T02:11:46.922Z,99.99
2017-10-10T02:12:56.923Z,99.99
2017-10-10T02:14:06.580Z,99.99
2017-10-10T02:15:16.242Z,99.66
2017-10-10T02:16:26.245Z,99.85
2017-10-10T02:17:36.585Z,99.85
2017-10-10T02:18:46.924Z,99.99
2017-10-10T02:19:57.264Z,99.99
2017-10-10T02:21:07.600Z,99.99
2017-10-10T02:22:17.932Z,99.99
2017-10-10T02:23:28.255Z,99.99
2017-10-10T02:24:38.583Z,99.99
2017-10-10T02:25:48.671Z,99.99
2017-10-10T02:26:58.688Z,99.99
2017-10-10T02:28:09.018Z,99.99
2017-10-10T02:29:19.342Z,99.99
2017-10-10T02:30:29.347Z,99.99
2017-10-10T02:31:39.682Z,99.99
2017-10-10T02:32:50.018Z,99.99
2017-10-10T02:34:00.019Z,99.99
2017-10-10T02:35:10.375Z,99.99
2017-10-10T02:36:20.711Z,99.99
2017-10-10T02:37:31.038Z,99.99
2017-10-10T02:38:41.034Z,99.99
2017-10-10T02:39:50.696Z,99.99
2017-10-10T02:41:00.688Z,99.99
2017-10-10T02:42:11.025Z,99.99
2017-10-10T02:43:21.352Z,99.99
2017-10-10T02:44:31.691Z,99.99
2017-10-10T02:45:42.027Z,99.99
2017-10-10T02:46:52.361Z,99.99
2017-10-10T02:48:02.692Z,99.99
2017-10-10T02:49:13.037Z,99.99
2017-10-10T02:50:23.369Z,99.99
2017-10-10T02:51:33.723Z,99.99
2017-10-10T02:52:44.053Z,99.99
2017-10-10T02:53:54.056Z,99.99
2017-10-10T02:55:04.406Z,99.99
2017-10-10T02:56:14.406Z,99.99
2017-10-10T02:57:24.411Z,99.99
2017-10-10T02:58:34.073Z,99.99
2017-10-10T02:59:44.410Z,99.99
2017-10-10T03:00:54.780Z,99.99
2017-10-10T03:02:04.440Z,99.99
2017-10-10T03:03:14.773Z,99.99
2017-10-10T03:04:25.101Z,99.99
2017-10-10T03:05:34.767Z,99.99
2017-10-10T03:06:45.094Z,99.99
2017-10-10T03:07:55.437Z,99.99
2017-10-10T03:09:05.765Z,99.99
2017-10-10T03:10:16.097Z,99.99
2017-10-10T03:11:25.755Z,99.99
2017-10-10T03:12:36.112Z,99.99
2017-10-10T03:13:46.434Z,99.99
2017-10-10T03:14:56.428Z,99.99
2017-10-10T03:16:06.431Z,99.9
2017-10-10T03:17:16.424Z,99.71
2017-10-10T03:18:26.106Z,99.52
2017-10-10T03:19:36.149Z,99.71
2017-10-10T03:20:46.146Z,99.8
2017-10-10T03:21:56.485Z,99.71
2017-10-10T03:23:06.819Z,99.52
2017-10-10T03:24:17.153Z,99.71
2017-10-10T03:25:27.481Z,99.71
2017-10-10T03:26:37.480Z,99.99
2017-10-10T03:27:47.475Z,99.71
2017-10-10T03:28:57.135Z,99.62
2017-10-10T03:30:07.134Z,99.99
2017-10-10T03:31:17.472Z,99.99
2017-10-10T03:32:27.135Z,99.99
2017-10-10T03:33:37.163Z,99.99
2017-10-10T03:34:47.162Z,99.99
2017-10-10T03:35:57.155Z,99.99
2017-10-10T03:37:07.196Z,99.99
2017-10-10T03:38:16.855Z,99.9
2017-10-10T03:39:27.191Z,99.95
2017-10-10T03:40:37.517Z,99.43
2017-10-10T03:41:47.513Z,99.19
2017-10-10T03:42:57.851Z,99.19
2017-10-10T03:44:08.195Z,99.99
2017-10-10T03:45:18.191Z,99.66
2017-10-10T03:46:28.190Z,99.66
2017-10-10T03:47:38.183Z,99.62
2017-10-10T03:48:48.514Z,99.71
2017-10-10T03:49:58.510Z,99.29
2017-10-10T03:51:08.510Z,99.19
2017-10-10T03:52:18.505Z,99.38
2017-10-10T03:53:28.841Z,98.96
2017-10-10T03:54:39.176Z,99.48
2017-10-10T03:55:49.525Z,99.57
2017-10-10T03:56:59.858Z,99.38
2017-10-10T03:58:10.187Z,98.67
2017-10-10T03:59:20.177Z,98.58
2017-10-10T04:00:29.837Z,98.82
2017-10-10T04:01:39.497Z,98.44
2017-10-10T04:02:49.847Z,98.34
2017-10-10T04:04:00.183Z,98.53
2017-10-10T04:05:10.518Z,98.44
2017-10-10T04:06:20.852Z,98.53
2017-10-10T04:07:31.187Z,98.82
2017-10-10T04:08:41.528Z,98.63
2017-10-10T04:09:51.867Z,98.34
2017-10-10T04:11:01.524Z,99.1
2017-10-10T04:12:11.186Z,98.63
2017-10-10T04:13:21.180Z,99.38
2017-10-10T04:14:31.181Z,99.01
2017-10-10T04:15:41.524Z,99.29
2017-10-10T04:16:51.515Z,98.34
2017-10-10T04:18:01.844Z,98.53
2017-10-10T04:19:12.207Z,98.15
2017-10-10T04:20:22.199Z,98.15
2017-10-10T04:21:32.528Z,98.06
2017-10-10T04:22:42.194Z,98.25
2017-10-10T04:23:52.528Z,97.58
2017-10-10T04:25:02.857Z,97.96
2017-10-10T04:26:13.193Z,97.96
2017-10-10T04:27:23.534Z,97.87
2017-10-10T04:28:33.528Z,97.39
2017-10-10T04:29:43.534Z,97.58
2017-10-10T04:30:53.884Z,97.68
2017-10-10T04:32:03.548Z,97.58
2017-10-10T04:33:13.544Z,97.3
2017-10-10T04:34:23.548Z,96.83
2017-10-10T04:35:33.545Z,97.2
2017-10-10T04:36:43.915Z,97.3
2017-10-10T04:37:53.908Z,97.68
2017-10-10T04:39:04.239Z,97.87
2017-10-10T04:40:14.233Z,97.2
2017-10-10T04:41:24.570Z,97.68
2017-10-10T04:42:33.902Z,97.3
2017-10-10T04:43:43.902Z,97.3
2017-10-10T04:44:54.227Z,97.58
2017-10-10T04:46:04.568Z,97.49
2017-10-10T04:47:14.897Z,97.58
2017-10-10T04:48:25.262Z,97.68
2017-10-10T04:49:34.941Z,97.49
2017-10-10T04:50:44.609Z,97.58
2017-10-10T04:51:54.938Z,97.39
2017-10-10T04:53:04.608Z,97.3
2017-10-10T04:54:14.951Z,96.92
2017-10-10T04:55:25.283Z,97.39
2017-10-10T04:56:35.280Z,97.3
2017-10-10T04:57:45.607Z,97.49
2017-10-10T04:58:55.262Z,97.2
2017-10-10T05:00:05.267Z,97.3
2017-10-10T05:01:15.262Z,96.83
2017-10-10T05:02:25.602Z,97.2
2017-10-10T05:03:35.935Z,96.92
2017-10-10T05:04:45.928Z,96.73
2017-10-10T05:05:56.262Z,96.83
2017-10-10T05:07:06.258Z,97.11
2017-10-10T05:08:16.597Z,96.83
2017-10-10T05:09:26.259Z,97.35
2017-10-10T05:10:36.592Z,96.97
2017-10-10T05:11:46.593Z,96.88
2017-10-10T05:12:56.596Z,97.2
2017-10-10T05:14:06.942Z,97.02
2017-10-10T05:15:17.040Z,97.11
2017-10-10T05:16:26.035Z,97.11
2017-10-10T05:17:36.370Z,97.3
2017-10-10T05:18:46.379Z,96.97
2017-10-10T05:19:56.722Z,97.54
2017-10-10T05:21:06.403Z,97.35
2017-10-10T05:22:16.410Z,97.54
2017-10-10T05:23:26.414Z,97.63
2017-10-10T05:24:36.417Z,97.49
2017-10-10T05:25:46.416Z,98.63
2017-10-10T05:26:56.744Z,98.44
2017-10-10T05:28:07.086Z,99.38
2017-10-10T05:29:17.100Z,98.91
2017-10-10T05:30:26.764Z,99.57
2017-10-10T05:31:37.096Z,99.76
2017-10-10T05:32:47.099Z,99.76
2017-10-10T05:33:57.452Z,99.57
2017-10-10T05:35:07.470Z,98.91
2017-10-10T05:36:17.801Z,98.82
2017-10-10T05:37:27.466Z,98.63
2017-10-10T05:38:37.828Z,98.44
2017-10-10T05:39:48.157Z,98.34
2017-10-10T05:40:58.155Z,98.63
2017-10-10T05:42:08.189Z,99.01
2017-10-10T05:43:18.529Z,98.91
2017-10-10T05:44:28.493Z,98.72
2017-10-10T05:45:38.493Z,99.1
2017-10-10T05:46:48.497Z,99.1
2017-10-10T05:47:58.500Z,99.33
2017-10-10T05:49:08.495Z,99.43
2017-10-10T05:50:18.498Z,98.77
2017-10-10T05:51:28.822Z,98.39
2017-10-10T05:52:38.488Z,98.86
2017-10-10T05:53:48.497Z,97.92
2017-10-10T05:54:58.828Z,98.2
2017-10-10T05:56:08.170Z,97.73
2017-10-10T05:57:18.512Z,98.3
2017-10-10T05:58:28.848Z,97.92
2017-10-10T05:59:38.842Z,97.92
2017-10-10T06:00:49.175Z,97.82
2017-10-10T06:01:59.174Z,97.82
2017-10-10T06:03:09.180Z,97.73
2017-10-10T06:04:19.180Z,97.82
2017-10-10T06:05:29.189Z,97.82
2017-10-10T06:06:39.521Z,98.01
2017-10-10T06:07:49.530Z,98.01
2017-10-10T06:08:59.527Z,98.2
2017-10-10T06:10:09.865Z,98.11
2017-10-10T06:11:20.202Z,97.73
2017-10-10T06:12:29.203Z,97.92
2017-10-10T06:13:39.547Z,98.58
2017-10-10T06:14:49.568Z,98.39
2017-10-10T06:15:59.234Z,98.2
2017-10-10T06:17:09.566Z,99.05
2017-10-10T06:18:19.234Z,98.96
2017-10-10T06:19:29.577Z,98.68
2017-10-10T06:20:39.587Z,98.68
2017-10-10T06:21:49.253Z,99.05
2017-10-10T06:22:59.594Z,97.73
2017-10-10T06:24:09.599Z,98.11
2017-10-10T06:25:19.669Z,97.54
2017-10-10T06:26:29.683Z,98.01
2017-10-10T06:27:40.023Z,97.63
2017-10-10T06:28:49.689Z,98.11
2017-10-10T06:29:59.690Z,98.01
2017-10-10T06:31:09.870Z,98.01
2017-10-10T06:32:20.222Z,97.73
2017-10-10T06:33:30.236Z,98.01
2017-10-10T06:34:40.228Z,98.39
2017-10-10T06:35:49.883Z,98.3
2017-10-10T06:37:00.172Z,98.58
2017-10-10T06:38:10.505Z,99.05
2017-10-10T06:39:20.835Z,99.33
2017-10-10T06:40:31.156Z,98.77
2017-10-10T06:41:41.475Z,98.58
2017-10-10T06:42:51.132Z,99.05
2017-10-10T06:44:00.792Z,98.86
2017-10-10T06:45:11.117Z,99.43
2017-10-10T06:46:21.454Z,99.15
2017-10-10T06:47:31.782Z,99.15
2017-10-10T06:48:42.113Z,98.39
2017-10-10T06:49:52.105Z,98.39
2017-10-10T06:51:02.096Z,98.86
2017-10-10T06:52:12.091Z,99.15
2017-10-10T06:53:22.082Z,98.68
2017-10-10T06:54:32.070Z,98.58
2017-10-10T06:55:42.068Z,99.15
2017-10-10T06:56:51.726Z,99.52
2017-10-10T06:58:01.383Z,99.81
2017-10-10T06:59:11.391Z,99.52
2017-10-10T07:00:21.046Z,99.9
2017-10-10T07:01:31.371Z,99.99
2017-10-10T07:02:41.363Z,99.99
2017-10-10T07:03:51.685Z,99.81
2017-10-10T07:05:01.343Z,99.81
2017-10-10T07:06:11.685Z,99.33
2017-10-10T07:07:21.676Z,99.81
2017-10-10T07:08:32.012Z,99.9
2017-10-10T07:09:42.007Z,99.24
2017-10-10T07:10:52.346Z,99.9
2017-10-10T07:12:02.006Z,99.71
2017-10-10T07:13:11.995Z,99.33
2017-10-10T07:14:21.996Z,99.52
2017-10-10T07:15:31.032Z,98.96
2017-10-10T07:16:41.353Z,98.58
2017-10-10T07:17:51.678Z,98.58
2017-10-10T07:19:02.012Z,98.77
2017-10-10T07:20:11.667Z,99.15
2017-10-10T07:21:21.990Z,98.86
2017-10-10T07:22:32.084Z,98.58
2017-10-10T07:23:42.413Z,99.15
2017-10-10T07:24:52.417Z,99.33
2017-10-10T07:26:02.741Z,99.05
2017-10-10T07:27:12.733Z,99.2
2017-10-10T07:28:23.059Z,98.91
2017-10-10T07:29:33.049Z,97.87
2017-10-10T07:30:42.706Z,97.11
2017-10-10T07:31:52.701Z,97.68
2017-10-10T07:33:02.713Z,97.4
2017-10-10T07:34:13.036Z,97.49
2017-10-10T07:35:22.693Z,97.78
2017-10-10T07:36:33.018Z,97.78
2017-10-10T07:37:43.356Z,97.59
2017-10-10T07:38:53.682Z,97.59
2017-10-10T07:40:03.675Z,97.49
2017-10-10T07:41:13.671Z,97.68
2017-10-10T07:42:23.678Z,97.02
2017-10-10T07:43:33.336Z,96.55
2017-10-10T07:44:43.328Z,96.64
2017-10-10T07:45:53.669Z,96.64
2017-10-10T07:47:03.665Z,96.73
2017-10-10T07:48:13.665Z,96.83
2017-10-10T07:49:23.996Z,96.64
2017-10-10T07:50:34.321Z,96.36
2017-10-10T07:51:44.315Z,96.36
2017-10-10T07:52:54.309Z,96.92
2017-10-10T07:54:03.635Z,95.79
2017-10-10T07:55:13.969Z,96.07
2017-10-10T07:56:24.293Z,96.36
2017-10-10T07:57:34.616Z,96.73
2017-10-10T07:58:44.612Z,96.17
2017-10-10T07:59:54.938Z,95.88
2017-10-10T08:01:05.284Z,95.69
2017-10-10T08:02:15.606Z,96.36
2017-10-10T08:03:25.641Z,95.98
2017-10-10T08:04:35.639Z,96.26
2017-10-10T08:05:45.973Z,96.36
2017-10-10T08:06:56.306Z,95.98
2017-10-10T08:08:06.295Z,96.07
2017-10-10T08:09:16.290Z,95.98
2017-10-10T08:10:28.385Z,95.98
2017-10-10T08:11:38.711Z,96.07
2017-10-10T08:12:49.040Z,96.07
2017-10-10T08:13:59.364Z,96.17
2017-10-10T08:15:09.365Z,96.17
2017-10-10T08:16:19.355Z,96.73
2017-10-10T08:17:29.681Z,96.41
2017-10-10T08:18:40.018Z,96.36
2017-10-10T08:19:50.340Z,96.78
2017-10-10T08:21:00.006Z,96.03
2017-10-10T08:22:09.998Z,96.69
2017-10-10T08:23:20.328Z,96.12
2017-10-10T08:24:29.988Z,96.22
2017-10-10T08:25:40.318Z,96.03
2017-10-10T08:26:50.640Z,96.41
2017-10-10T08:28:00.633Z,95.65
2017-10-10T08:29:10.297Z,95.65
2017-10-10T08:30:20.636Z,95.07
2017-10-10T08:31:30.969Z,94.6
2017-10-10T08:32:40.962Z,94.42
2017-10-10T08:33:50.973Z,93.65
2017-10-10T08:35:00.631Z,94.89
2017-10-10T08:36:10.631Z,94.7
2017-10-10T08:37:20.967Z,93.65
2017-10-10T08:38:31.295Z,93.08
2017-10-10T08:39:41.290Z,93.18
2017-10-10T08:40:51.624Z,92.04
2017-10-10T08:42:01.621Z,92.33
2017-10-10T08:43:11.619Z,92.14
2017-10-10T08:44:21.946Z,91.28
2017-10-10T08:45:31.608Z,91.38
2017-10-10T08:46:41.948Z,91.95
2017-10-10T08:47:52.281Z,91.47
2017-10-10T08:49:02.299Z,90.53
2017-10-10T08:50:12.624Z,90.53
2017-10-10T08:51:22.628Z,91.33
2017-10-10T08:52:32.625Z,91.33
2017-10-10T08:53:42.963Z,91.24
2017-10-10T08:54:53.308Z,91.24
2017-10-10T08:56:03.639Z,91.05
2017-10-10T08:57:13.634Z,91.42
2017-10-10T08:58:23.293Z,91.61
2017-10-10T08:59:33.300Z,91.52
2017-10-10T09:00:43.627Z,91.42
2017-10-10T09:01:53.954Z,91.52
2017-10-10T09:03:03.945Z,90.67
2017-10-10T09:04:14.273Z,90.57
2017-10-10T09:05:24.597Z,90.1
2017-10-10T09:06:34.923Z,90
2017-10-10T09:07:45.249Z,90.38
2017-10-10T09:08:55.245Z,90.86
2017-10-10T09:10:04.902Z,90.86
2017-10-10T09:11:15.263Z,91.14
2017-10-10T09:12:25.593Z,91.28
2017-10-10T09:13:35.587Z,90.52
2017-10-10T09:14:47.585Z,90.52
2017-10-10T09:15:57.915Z,90.52
2017-10-10T09:17:08.242Z,89.2
2017-10-10T09:18:18.575Z,89.86
2017-10-10T09:19:28.912Z,90.14
2017-10-10T09:20:38.907Z,89.67
2017-10-10T09:21:49.231Z,89.67
2017-10-10T09:22:59.228Z,90.19
2017-10-10T09:24:08.891Z,90
2017-10-10T09:25:19.228Z,89.53
2017-10-10T09:26:29.556Z,89.53
2017-10-10T09:27:39.549Z,89.9
2017-10-10T09:28:49.207Z,88.57
2017-10-10T09:29:58.532Z,88.67
2017-10-10T09:31:08.194Z,88.67
2017-10-10T09:32:17.855Z,88.29
2017-10-10T09:33:27.856Z,88.76
2017-10-10T09:34:37.514Z,88.57
2017-10-10T09:35:47.841Z,88.2
2017-10-10T09:36:58.170Z,88.48
2017-10-10T09:38:08.172Z,88.29
2017-10-10T09:39:17.501Z,88.48
2017-10-10T09:40:27.162Z,88.29
2017-10-10T09:41:37.489Z,87.91
2017-10-10T09:42:47.823Z,87.62
2017-10-10T09:44:00.156Z,88.1
2017-10-10T09:45:10.492Z,87.86
2017-10-10T09:46:20.820Z,86.91
2017-10-10T09:47:31.149Z,87.57
2017-10-10T09:48:41.475Z,86.72
2017-10-10T09:49:51.800Z,87.34
2017-10-10T09:51:02.128Z,86.91
2017-10-10T09:52:12.124Z,87.19
2017-10-10T09:53:22.462Z,87.57
2017-10-10T09:54:32.457Z,86.53
2017-10-10T09:55:42.123Z,86.24
2017-10-10T09:56:52.447Z,86.53
2017-10-10T09:58:02.791Z,85.96
2017-10-10T09:59:13.132Z,86.05
2017-10-10T10:00:23.505Z,86.53
2017-10-10T10:01:33.498Z,87.01
2017-10-10T10:02:43.494Z,87.29
2017-10-10T10:03:53.837Z,87.01
2017-10-10T10:05:04.176Z,86.53
2017-10-10T10:06:14.509Z,86.34
2017-10-10T10:07:24.838Z,85.96
2017-10-10T10:08:35.169Z,86.63
2017-10-10T10:09:45.502Z,86.15
2017-10-10T10:10:55.162Z,85.49
2017-10-10T10:12:05.159Z,85.2
2017-10-10T10:13:15.267Z,85.39
2017-10-10T10:14:25.593Z,85.3
2017-10-10T10:15:35.586Z,85.49
2017-10-10T10:16:45.581Z,85.91
2017-10-10T10:17:55.583Z,85.62
2017-10-10T10:19:05.600Z,85.91
2017-10-10T10:20:15.271Z,85.62
2017-10-10T10:21:24.594Z,83.72
2017-10-10T10:22:34.925Z,84.58
2017-10-10T10:23:45.259Z,85.2
2017-10-10T10:24:55.256Z,85.2
2017-10-10T10:26:05.589Z,84.91
2017-10-10T10:27:15.594Z,85.11
2017-10-10T10:28:25.253Z,84.91
2017-10-10T10:29:35.251Z,86.15
2017-10-10T10:30:44.912Z,85.96
2017-10-10T10:31:54.915Z,85.68
2017-10-10T10:33:05.248Z,85.68
2017-10-10T10:34:15.258Z,85.2
2017-10-10T10:35:25.252Z,86.1
2017-10-10T10:36:35.580Z,85.39
2017-10-10T10:37:45.915Z,85.43
2017-10-10T10:38:56.241Z,84.95
2017-10-10T10:40:06.233Z,83.34
2017-10-10T10:41:16.239Z,84.01
2017-10-10T10:42:26.234Z,83.72
2017-10-10T10:43:36.234Z,84.48
2017-10-10T10:44:46.242Z,84.1
2017-10-10T10:45:56.575Z,84.01
2017-10-10T10:47:06.236Z,83.44
2017-10-10T10:48:16.237Z,84.29
2017-10-10T10:49:25.900Z,83.25
2017-10-10T10:50:35.562Z,82.77
2017-10-10T10:51:45.563Z,83.25
2017-10-10T10:52:55.558Z,83.06
2017-10-10T10:54:05.560Z,83.91
2017-10-10T10:55:15.918Z,83.53
2017-10-10T10:56:26.246Z,83.34
2017-10-10T10:57:35.917Z,83.44
2017-10-10T10:58:45.593Z,82.68
2017-10-10T10:59:55.587Z,83.25
2017-10-10T11:01:05.582Z,83.59
2017-10-10T11:02:15.242Z,83.2
2017-10-10T11:03:25.585Z,83.82
2017-10-10T11:04:35.586Z,84.53
2017-10-10T11:05:45.916Z,83.87
2017-10-10T11:06:56.244Z,84.06
2017-10-10T11:08:06.579Z,83.62
2017-10-10T11:09:16.911Z,84.34
2017-10-10T11:10:26.240Z,84.25
2017-10-10T11:11:36.240Z,85.58
2017-10-10T11:12:46.245Z,85.86
2017-10-10T11:13:56.238Z,86.43
2017-10-10T11:15:06.590Z,86.01
2017-10-10T11:16:16.583Z,86.63
2017-10-10T11:17:26.249Z,87.19
2017-10-10T11:18:36.251Z,86.24
2017-10-10T11:19:46.247Z,86.43
2017-10-10T11:20:56.578Z,86.53
2017-10-10T11:22:06.582Z,86.05
2017-10-10T11:23:16.930Z,85.11
2017-10-10T11:24:26.930Z,85.86
2017-10-10T11:25:37.271Z,86.05
2017-10-10T11:26:47.600Z,85.39
2017-10-10T11:27:57.929Z,85.58
2017-10-10T11:29:07.257Z,86.15
2017-10-10T11:30:17.251Z,86.63
2017-10-10T11:31:27.581Z,86.43
2017-10-10T11:32:37.921Z,86.63
2017-10-10T11:33:48.250Z,86.24
2017-10-10T11:34:58.577Z,85.77
2017-10-10T11:36:08.935Z,86.43
2017-10-10T11:37:18.931Z,85.86
2017-10-10T11:38:28.259Z,85.11
2017-10-10T11:39:38.254Z,85.39
2017-10-10T11:40:48.593Z,85.96
2017-10-10T11:41:58.924Z,85.96
2017-10-10T11:43:08.919Z,85.91
2017-10-10T11:44:18.923Z,85.72
2017-10-10T11:45:28.253Z,85.34
2017-10-10T11:46:38.589Z,84.58
2017-10-10T11:47:48.585Z,84.52
2017-10-10T11:48:58.587Z,83.67
2017-10-10T11:50:08.916Z,83.39
2017-10-10T11:51:19.255Z,83
2017-10-10T11:52:29.260Z,82.53
2017-10-10T11:53:38.921Z,82.28
2017-10-10T11:54:48.585Z,81.81
2017-10-10T11:55:58.911Z,82
2017-10-10T11:57:09.242Z,81.62
2017-10-10T11:58:19.584Z,81.62
2017-10-10T11:59:29.610Z,81.52
2017-10-10T12:00:39.939Z,81.28
2017-10-10T12:01:49.266Z,80.9
2017-10-10T12:02:59.612Z,80.23
2017-10-10T12:04:09.607Z,80.23
2017-10-10T12:05:19.604Z,79.66
2017-10-10T12:06:28.930Z,79.85
2017-10-10T12:07:39.282Z,79.85
2017-10-10T12:08:49.631Z,79.19
2017-10-10T12:09:59.392Z,79.47
2017-10-10T12:11:09.389Z,79.19
2017-10-10T12:12:19.719Z,79.85
2017-10-10T12:13:29.720Z,78.99
2017-10-10T12:14:39.717Z,78.9
2017-10-10T12:15:50.055Z,78.9
2017-10-10T12:17:00.051Z,78.8
2017-10-10T12:18:10.071Z,78.23
2017-10-10T12:19:20.070Z,78.37
2017-10-10T12:20:30.065Z,78.04
2017-10-10T12:21:40.068Z,78.14
2017-10-10T12:22:50.066Z,77.8
2017-10-10T12:24:00.073Z,77.51
2017-10-10T12:25:10.068Z,78.08
2017-10-10T12:26:20.065Z,78.08
2017-10-10T12:27:30.802Z,77.51
2017-10-10T12:28:41.140Z,77.22
2017-10-10T12:29:50.803Z,76.65
2017-10-10T12:31:00.802Z,75.96
2017-10-10T12:32:10.135Z,75.59
2017-10-10T12:33:20.149Z,74.77
2017-10-10T12:34:29.820Z,74.29
2017-10-10T12:35:39.826Z,73.14
2017-10-10T12:36:50.156Z,72.96
2017-10-10T12:38:00.157Z,72.8
2017-10-10T12:39:10.496Z,72.03
2017-10-10T12:40:20.838Z,71.56
2017-10-10T12:41:30.845Z,70.92
2017-10-10T12:42:40.840Z,71.06
2017-10-10T12:43:51.184Z,69.91
2017-10-10T12:45:01.511Z,69.66
2017-10-10T12:46:11.517Z,69.72
2017-10-10T12:47:21.517Z,68.67
2017-10-10T12:48:31.527Z,68.96
2017-10-10T12:49:41.863Z,68.73
2017-10-10T12:50:51.927Z,68.92
2017-10-10T12:52:01.932Z,68.92
2017-10-10T12:53:11.934Z,69.4
2017-10-10T12:54:22.267Z,69.84
2017-10-10T12:55:31.932Z,70.13
2017-10-10T12:56:41.611Z,69.27
2017-10-10T12:57:51.985Z,68.6
2017-10-10T12:59:02.019Z,68.85
2017-10-10T13:00:12.369Z,69.87
2017-10-10T13:01:22.712Z,71.01
2017-10-10T13:02:32.381Z,71.01
2017-10-10T13:03:42.716Z,70.82
2017-10-10T13:04:53.056Z,71.48
2017-10-10T13:06:03.059Z,71.39
2017-10-10T13:07:12.731Z,71.2
2017-10-10T13:08:23.063Z,71.26
2017-10-10T13:09:33.088Z,72.31
2017-10-10T13:10:43.103Z,72.6
2017-10-10T13:11:53.099Z,72.78
2017-10-10T13:13:02.427Z,73.26
2017-10-10T13:14:12.759Z,73.83
2017-10-10T13:15:22.424Z,73.74
2017-10-10T13:16:32.437Z,74.27
2017-10-10T13:17:42.777Z,74.37
2017-10-10T13:18:53.109Z,74.65
2017-10-10T13:20:03.463Z,74.46
2017-10-10T13:21:13.805Z,74.65
2017-10-10T13:22:23.800Z,74.94
2017-10-10T13:23:33.462Z,75.51
2017-10-10T13:24:43.122Z,75.85
2017-10-10T13:25:53.119Z,75.95
2017-10-10T13:27:03.447Z,75.85
2017-10-10T13:28:13.441Z,75.57
2017-10-10T13:29:23.442Z,76.14
2017-10-10T13:30:33.772Z,76.9
2017-10-10T13:31:43.775Z,76.81
2017-10-10T13:32:53.448Z,77.28
2017-10-10T13:34:03.783Z,77.15
2017-10-10T13:35:13.785Z,77.43
2017-10-10T13:36:24.121Z,77.43
2017-10-10T13:37:34.114Z,77.53
2017-10-10T13:38:44.444Z,77.72
2017-10-10T13:39:54.442Z,77.81
2017-10-10T13:41:04.102Z,77.72
2017-10-10T13:42:13.771Z,77.72
2017-10-10T13:43:26.201Z,78.29
2017-10-10T13:44:36.273Z,78
2017-10-10T13:45:46.600Z,78.77
2017-10-10T13:46:56.264Z,78.96
2017-10-10T13:48:05.592Z,78.86
2017-10-10T13:49:15.262Z,78.86
2017-10-10T13:50:25.265Z,79.43
2017-10-10T13:51:35.287Z,79.39
2017-10-10T13:52:45.287Z,79.91
2017-10-10T13:53:54.994Z,78.82
2017-10-10T13:55:05.320Z,79.68
2017-10-10T13:56:14.980Z,79.77
2017-10-10T13:57:25.311Z,79.86
2017-10-10T13:58:34.978Z,79.39
2017-10-10T13:59:45.306Z,79.86
2017-10-10T14:00:55.641Z,79.96
2017-10-10T14:02:05.976Z,80.44
2017-10-10T14:03:16.307Z,80.53
2017-10-10T14:04:26.639Z,81.01
2017-10-10T14:05:36.972Z,80.53
2017-10-10T14:06:46.964Z,80.82
2017-10-10T14:07:57.298Z,81.38
2017-10-10T14:09:07.297Z,82.05
2017-10-10T14:10:16.961Z,82.15
2017-10-10T14:11:26.958Z,81.77
2017-10-10T14:12:36.950Z,81.86
2017-10-10T14:13:46.953Z,81.73
2017-10-10T14:14:57.283Z,82.01
2017-10-10T14:16:07.285Z,81.73
2017-10-10T14:17:17.624Z,83.19
2017-10-10T14:18:26.950Z,82.58
2017-10-10T14:19:36.944Z,82.87
2017-10-10T14:20:47.271Z,82.29
2017-10-10T14:21:57.610Z,82.15
2017-10-10T14:23:07.613Z,81.63
2017-10-10T14:24:17.973Z,82.29
2017-10-10T14:25:28.307Z,82.29
2017-10-10T14:26:38.323Z,82.96
2017-10-10T14:27:48.655Z,82.49
2017-10-10T14:28:58.314Z,82.96
2017-10-10T14:30:08.655Z,82.58
2017-10-10T14:31:18.657Z,82.96
2017-10-10T14:32:28.319Z,82.2
2017-10-10T14:33:38.646Z,82.58
2017-10-10T14:34:48.980Z,82.01
2017-10-10T14:35:58.973Z,82.58
2017-10-10T14:37:08.297Z,82.39
2017-10-10T14:38:18.626Z,82.1
2017-10-10T14:39:28.963Z,82.1
2017-10-10T14:40:39.301Z,81.82
2017-10-10T14:41:49.299Z,82.01
2017-10-10T14:42:59.660Z,82.29
2017-10-10T14:44:09.998Z,82.77
2017-10-10T14:45:19.660Z,82.87
2017-10-10T14:46:29.342Z,82.29
2017-10-10T14:47:39.348Z,82.39
2017-10-10T14:48:49.688Z,82.29
2017-10-10T14:50:00.046Z,82.39
2017-10-10T14:51:10.379Z,82.2
2017-10-10T14:52:20.708Z,82.96
2017-10-10T14:53:31.057Z,82.01
2017-10-10T14:54:41.395Z,82.77
2017-10-10T14:55:51.744Z,82.87
2017-10-10T14:57:02.077Z,83.15
2017-10-10T14:58:12.403Z,82.96
2017-10-10T14:59:22.732Z,82.49
2017-10-10T15:00:32.732Z,83.15
2017-10-10T15:01:43.089Z,82.77
2017-10-10T15:02:53.433Z,82.87
2017-10-10T15:04:02.763Z,82.87
2017-10-10T15:05:12.807Z,83.06
2017-10-10T15:06:23.134Z,83.06